sensor_id;sensor_type;location;lat;lon;timestamp;P1;durP1;ratioP1;P2;durP2;ratioP2
14714;SDS011;7448;52.698;5.186;2022-11-20T00:01:56;20.70;;;8.70;;
14714;SDS011;7448;52.698;5.186;2022-11-20T00:04:23;17.77;;;7.05;;
14714;SDS011;7448;52.698;5.186;2022-11-20T00:06:49;20.27;;;8.05;;
14714;SDS011;7448;52.698;5.186;2022-11-20T00:09:15;17.15;;;8.07;;
14714;SDS011;7448;52.698;5.186;2022-11-20T00:11:42;16.60;;;7.55;;
14714;SDS011;7448;52.698;5.186;2022-11-20T00:14:08;16.90;;;8.50;;
14714;SDS011;7448;52.698;5.186;2022-11-20T00:16:35;17.13;;;7.93;;
14714;SDS011;7448;52.698;5.186;2022-11-20T00:19:02;16.80;;;7.28;;
14714;SDS011;7448;52.698;5.186;2022-11-20T00:21:28;18.33;;;7.90;;
14714;SDS011;7448;52.698;5.186;2022-11-20T00:23:56;19.38;;;7.60;;
14714;SDS011;7448;52.698;5.186;2022-11-20T00:26:24;16.55;;;7.97;;
14714;SDS011;7448;52.698;5.186;2022-11-20T00:28:51;19.10;;;8.52;;
14714;SDS011;7448;52.698;5.186;2022-11-20T00:31:18;22.10;;;8.60;;
14714;SDS011;7448;52.698;5.186;2022-11-20T00:33:45;19.83;;;8.65;;
14714;SDS011;7448;52.698;5.186;2022-11-20T00:36:13;19.42;;;8.25;;
14714;SDS011;7448;52.698;5.186;2022-11-20T00:38:40;17.48;;;8.27;;
14714;SDS011;7448;52.698;5.186;2022-11-20T00:41:08;15.98;;;7.50;;
14714;SDS011;7448;52.698;5.186;2022-11-20T00:43:34;18.08;;;8.18;;
14714;SDS011;7448;52.698;5.186;2022-11-20T00:46:02;18.00;;;8.15;;
14714;SDS011;7448;52.698;5.186;2022-11-20T00:48:29;20.10;;;8.35;;
14714;SDS011;7448;52.698;5.186;2022-11-20T00:50:55;18.63;;;7.78;;
14714;SDS011;7448;52.698;5.186;2022-11-20T00:53:22;18.23;;;7.75;;
14714;SDS011;7448;52.698;5.186;2022-11-20T00:55:52;17.20;;;8.07;;
14714;SDS011;7448;52.698;5.186;2022-11-20T00:58:20;18.55;;;8.30;;
14714;SDS011;7448;52.698;5.186;2022-11-20T01:00:46;19.23;;;8.63;;
14714;SDS011;7448;52.698;5.186;2022-11-20T01:03:15;18.80;;;8.35;;
14714;SDS011;7448;52.698;5.186;2022-11-20T01:05:41;18.20;;;8.32;;
14714;SDS011;7448;52.698;5.186;2022-11-20T01:08:08;18.90;;;8.75;;
14714;SDS011;7448;52.698;5.186;2022-11-20T01:10:34;21.45;;;8.25;;
14714;SDS011;7448;52.698;5.186;2022-11-20T01:13:01;16.77;;;7.53;;
14714;SDS011;7448;52.698;5.186;2022-11-20T01:15:46;20.95;;;9.23;;
14714;SDS011;7448;52.698;5.186;2022-11-20T01:18:12;18.65;;;8.52;;
14714;SDS011;7448;52.698;5.186;2022-11-20T01:20:39;17.88;;;9.27;;
14714;SDS011;7448;52.698;5.186;2022-11-20T01:23:05;21.30;;;9.02;;
14714;SDS011;7448;52.698;5.186;2022-11-20T01:25:31;17.33;;;8.63;;
14714;SDS011;7448;52.698;5.186;2022-11-20T01:28:00;18.92;;;8.77;;
14714;SDS011;7448;52.698;5.186;2022-11-20T01:30:26;17.50;;;8.00;;
14714;SDS011;7448;52.698;5.186;2022-11-20T01:32:53;24.55;;;9.32;;
14714;SDS011;7448;52.698;5.186;2022-11-20T01:35:21;16.77;;;8.35;;
14714;SDS011;7448;52.698;5.186;2022-11-20T01:37:47;19.27;;;8.35;;
14714;SDS011;7448;52.698;5.186;2022-11-20T01:40:14;21.02;;;8.95;;
14714;SDS011;7448;52.698;5.186;2022-11-20T01:42:44;18.75;;;8.77;;
14714;SDS011;7448;52.698;5.186;2022-11-20T01:48:15;21.92;;;8.70;;
14714;SDS011;7448;52.698;5.186;2022-11-20T01:50:41;20.05;;;8.35;;
14714;SDS011;7448;52.698;5.186;2022-11-20T01:53:09;17.90;;;7.72;;
14714;SDS011;7448;52.698;5.186;2022-11-20T01:55:44;18.20;;;8.23;;
14714;SDS011;7448;52.698;5.186;2022-11-20T01:58:11;19.67;;;8.23;;
14714;SDS011;7448;52.698;5.186;2022-11-20T02:00:38;17.80;;;8.40;;
14714;SDS011;7448;52.698;5.186;2022-11-20T02:03:11;18.80;;;9.02;;
14714;SDS011;7448;52.698;5.186;2022-11-20T02:08:18;21.25;;;9.25;;
14714;SDS011;7448;52.698;5.186;2022-11-20T02:10:45;19.05;;;9.32;;
14714;SDS011;7448;52.698;5.186;2022-11-20T02:13:12;18.88;;;8.18;;
14714;SDS011;7448;52.698;5.186;2022-11-20T02:15:57;23.48;;;9.00;;
14714;SDS011;7448;52.698;5.186;2022-11-20T02:18:24;21.75;;;9.10;;
14714;SDS011;7448;52.698;5.186;2022-11-20T02:20:53;22.20;;;10.00;;
14714;SDS011;7448;52.698;5.186;2022-11-20T02:23:32;23.40;;;9.65;;
14714;SDS011;7448;52.698;5.186;2022-11-20T02:26:00;20.58;;;9.93;;
14714;SDS011;7448;52.698;5.186;2022-11-20T02:28:27;23.33;;;10.02;;
14714;SDS011;7448;52.698;5.186;2022-11-20T02:30:54;21.08;;;10.25;;
14714;SDS011;7448;52.698;5.186;2022-11-20T02:33:20;25.92;;;9.70;;
14714;SDS011;7448;52.698;5.186;2022-11-20T02:35:47;21.35;;;8.32;;
14714;SDS011;7448;52.698;5.186;2022-11-20T02:38:13;20.60;;;8.80;;
14714;SDS011;7448;52.698;5.186;2022-11-20T02:40:40;20.83;;;8.48;;
14714;SDS011;7448;52.698;5.186;2022-11-20T02:43:07;17.35;;;7.93;;
14714;SDS011;7448;52.698;5.186;2022-11-20T02:45:33;20.58;;;8.73;;
14714;SDS011;7448;52.698;5.186;2022-11-20T02:48:00;19.70;;;8.82;;
14714;SDS011;7448;52.698;5.186;2022-11-20T02:50:26;22.02;;;9.63;;
14714;SDS011;7448;52.698;5.186;2022-11-20T02:52:53;23.55;;;9.57;;
14714;SDS011;7448;52.698;5.186;2022-11-20T02:55:19;21.50;;;9.55;;
14714;SDS011;7448;52.698;5.186;2022-11-20T02:57:46;22.95;;;8.88;;
14714;SDS011;7448;52.698;5.186;2022-11-20T03:00:12;22.02;;;9.55;;
14714;SDS011;7448;52.698;5.186;2022-11-20T03:02:39;20.60;;;9.38;;
14714;SDS011;7448;52.698;5.186;2022-11-20T03:05:05;21.50;;;9.10;;
14714;SDS011;7448;52.698;5.186;2022-11-20T03:07:32;25.42;;;9.68;;
14714;SDS011;7448;52.698;5.186;2022-11-20T03:09:58;18.83;;;8.95;;
14714;SDS011;7448;52.698;5.186;2022-11-20T03:12:25;21.15;;;9.63;;
14714;SDS011;7448;52.698;5.186;2022-11-20T03:14:51;23.27;;;8.73;;
14714;SDS011;7448;52.698;5.186;2022-11-20T03:17:18;20.30;;;8.50;;
14714;SDS011;7448;52.698;5.186;2022-11-20T03:19:44;22.60;;;8.68;;
14714;SDS011;7448;52.698;5.186;2022-11-20T03:22:10;20.10;;;8.38;;
14714;SDS011;7448;52.698;5.186;2022-11-20T03:24:37;23.40;;;9.88;;
14714;SDS011;7448;52.698;5.186;2022-11-20T03:27:04;23.35;;;9.05;;
14714;SDS011;7448;52.698;5.186;2022-11-20T03:29:30;19.05;;;9.07;;
14714;SDS011;7448;52.698;5.186;2022-11-20T03:31:58;20.38;;;8.88;;
14714;SDS011;7448;52.698;5.186;2022-11-20T03:34:24;22.92;;;9.02;;
14714;SDS011;7448;52.698;5.186;2022-11-20T03:36:51;25.67;;;9.55;;
14714;SDS011;7448;52.698;5.186;2022-11-20T03:39:17;20.30;;;9.50;;
14714;SDS011;7448;52.698;5.186;2022-11-20T03:41:44;21.23;;;9.75;;
14714;SDS011;7448;52.698;5.186;2022-11-20T03:44:11;17.50;;;8.15;;
14714;SDS011;7448;52.698;5.186;2022-11-20T03:46:38;20.38;;;8.82;;
14714;SDS011;7448;52.698;5.186;2022-11-20T03:49:04;21.25;;;9.10;;
14714;SDS011;7448;52.698;5.186;2022-11-20T03:51:32;20.13;;;8.82;;
14714;SDS011;7448;52.698;5.186;2022-11-20T03:53:59;21.15;;;8.55;;
14714;SDS011;7448;52.698;5.186;2022-11-20T03:56:27;22.10;;;9.88;;
14714;SDS011;7448;52.698;5.186;2022-11-20T03:58:54;18.15;;;8.30;;
14714;SDS011;7448;52.698;5.186;2022-11-20T04:01:21;19.77;;;9.35;;
14714;SDS011;7448;52.698;5.186;2022-11-20T04:03:49;19.52;;;8.38;;
14714;SDS011;7448;52.698;5.186;2022-11-20T04:06:18;23.27;;;9.02;;
14714;SDS011;7448;52.698;5.186;2022-11-20T04:08:45;18.70;;;8.65;;
14714;SDS011;7448;52.698;5.186;2022-11-20T04:13:38;22.77;;;8.80;;
14714;SDS011;7448;52.698;5.186;2022-11-20T04:16:05;21.42;;;8.40;;
14714;SDS011;7448;52.698;5.186;2022-11-20T04:18:32;24.60;;;10.32;;
14714;SDS011;7448;52.698;5.186;2022-11-20T04:20:59;20.38;;;8.75;;
14714;SDS011;7448;52.698;5.186;2022-11-20T04:23:26;17.73;;;9.13;;
14714;SDS011;7448;52.698;5.186;2022-11-20T04:25:53;21.65;;;9.07;;
14714;SDS011;7448;52.698;5.186;2022-11-20T04:28:19;22.05;;;9.23;;
14714;SDS011;7448;52.698;5.186;2022-11-20T04:30:46;19.80;;;8.77;;
14714;SDS011;7448;52.698;5.186;2022-11-20T04:33:12;20.20;;;8.55;;
14714;SDS011;7448;52.698;5.186;2022-11-20T04:35:39;23.58;;;9.05;;
14714;SDS011;7448;52.698;5.186;2022-11-20T04:38:06;17.63;;;8.52;;
14714;SDS011;7448;52.698;5.186;2022-11-20T04:40:33;23.85;;;9.73;;
14714;SDS011;7448;52.698;5.186;2022-11-20T04:42:59;24.08;;;9.15;;
14714;SDS011;7448;52.698;5.186;2022-11-20T04:45:26;21.15;;;8.35;;
14714;SDS011;7448;52.698;5.186;2022-11-20T04:47:52;17.40;;;7.78;;
14714;SDS011;7448;52.698;5.186;2022-11-20T04:50:18;21.33;;;8.95;;
14714;SDS011;7448;52.698;5.186;2022-11-20T04:52:45;22.92;;;10.23;;
14714;SDS011;7448;52.698;5.186;2022-11-20T04:55:12;25.08;;;10.38;;
14714;SDS011;7448;52.698;5.186;2022-11-20T04:57:39;26.13;;;10.52;;
14714;SDS011;7448;52.698;5.186;2022-11-20T05:00:06;21.80;;;10.18;;
14714;SDS011;7448;52.698;5.186;2022-11-20T05:02:32;24.85;;;10.23;;
14714;SDS011;7448;52.698;5.186;2022-11-20T05:04:59;23.70;;;8.80;;
14714;SDS011;7448;52.698;5.186;2022-11-20T05:07:25;19.15;;;9.50;;
14714;SDS011;7448;52.698;5.186;2022-11-20T05:09:51;19.88;;;8.82;;
14714;SDS011;7448;52.698;5.186;2022-11-20T05:12:18;23.92;;;10.13;;
14714;SDS011;7448;52.698;5.186;2022-11-20T05:14:44;22.80;;;10.02;;
14714;SDS011;7448;52.698;5.186;2022-11-20T05:17:11;24.13;;;9.45;;
14714;SDS011;7448;52.698;5.186;2022-11-20T05:19:38;20.63;;;8.80;;
14714;SDS011;7448;52.698;5.186;2022-11-20T05:22:04;23.75;;;10.93;;
14714;SDS011;7448;52.698;5.186;2022-11-20T05:24:30;23.13;;;9.38;;
14714;SDS011;7448;52.698;5.186;2022-11-20T05:26:57;20.88;;;9.60;;
14714;SDS011;7448;52.698;5.186;2022-11-20T05:29:23;20.67;;;9.75;;
14714;SDS011;7448;52.698;5.186;2022-11-20T05:31:50;22.50;;;9.18;;
14714;SDS011;7448;52.698;5.186;2022-11-20T05:34:16;24.85;;;10.45;;
14714;SDS011;7448;52.698;5.186;2022-11-20T05:36:43;22.05;;;9.07;;
14714;SDS011;7448;52.698;5.186;2022-11-20T05:39:09;20.80;;;8.93;;
14714;SDS011;7448;52.698;5.186;2022-11-20T05:41:36;22.27;;;9.95;;
14714;SDS011;7448;52.698;5.186;2022-11-20T05:44:02;23.60;;;10.02;;
14714;SDS011;7448;52.698;5.186;2022-11-20T05:46:29;19.27;;;8.95;;
14714;SDS011;7448;52.698;5.186;2022-11-20T05:48:56;25.02;;;10.32;;
14714;SDS011;7448;52.698;5.186;2022-11-20T05:51:23;23.67;;;9.88;;
14714;SDS011;7448;52.698;5.186;2022-11-20T05:53:50;24.35;;;10.13;;
14714;SDS011;7448;52.698;5.186;2022-11-20T05:56:18;23.17;;;10.20;;
14714;SDS011;7448;52.698;5.186;2022-11-20T05:58:44;22.73;;;10.15;;
14714;SDS011;7448;52.698;5.186;2022-11-20T06:01:13;23.40;;;9.50;;
14714;SDS011;7448;52.698;5.186;2022-11-20T06:03:40;25.13;;;9.73;;
14714;SDS011;7448;52.698;5.186;2022-11-20T06:06:08;22.08;;;8.90;;
14714;SDS011;7448;52.698;5.186;2022-11-20T06:08:34;18.55;;;9.27;;
14714;SDS011;7448;52.698;5.186;2022-11-20T06:11:05;23.83;;;9.57;;
14714;SDS011;7448;52.698;5.186;2022-11-20T06:13:31;22.02;;;9.82;;
14714;SDS011;7448;52.698;5.186;2022-11-20T06:15:58;23.05;;;9.98;;
14714;SDS011;7448;52.698;5.186;2022-11-20T06:18:25;23.90;;;9.80;;
14714;SDS011;7448;52.698;5.186;2022-11-20T06:20:58;20.42;;;9.18;;
14714;SDS011;7448;52.698;5.186;2022-11-20T06:23:25;21.40;;;9.27;;
14714;SDS011;7448;52.698;5.186;2022-11-20T06:25:51;22.95;;;9.52;;
14714;SDS011;7448;52.698;5.186;2022-11-20T06:28:18;22.25;;;10.20;;
14714;SDS011;7448;52.698;5.186;2022-11-20T06:30:44;25.45;;;10.13;;
14714;SDS011;7448;52.698;5.186;2022-11-20T06:33:11;24.02;;;10.38;;
14714;SDS011;7448;52.698;5.186;2022-11-20T06:35:37;25.50;;;10.93;;
14714;SDS011;7448;52.698;5.186;2022-11-20T06:38:04;25.58;;;11.18;;
14714;SDS011;7448;52.698;5.186;2022-11-20T06:40:30;22.65;;;10.60;;
14714;SDS011;7448;52.698;5.186;2022-11-20T06:42:57;21.85;;;10.73;;
14714;SDS011;7448;52.698;5.186;2022-11-20T06:45:23;25.23;;;10.73;;
14714;SDS011;7448;52.698;5.186;2022-11-20T06:47:49;26.58;;;11.05;;
14714;SDS011;7448;52.698;5.186;2022-11-20T06:50:16;28.10;;;10.95;;
14714;SDS011;7448;52.698;5.186;2022-11-20T06:52:42;29.63;;;10.98;;
14714;SDS011;7448;52.698;5.186;2022-11-20T06:55:09;24.05;;;10.75;;
14714;SDS011;7448;52.698;5.186;2022-11-20T06:57:35;28.80;;;11.52;;
14714;SDS011;7448;52.698;5.186;2022-11-20T07:00:02;27.80;;;12.13;;
14714;SDS011;7448;52.698;5.186;2022-11-20T07:02:28;29.27;;;12.43;;
14714;SDS011;7448;52.698;5.186;2022-11-20T07:04:55;38.00;;;14.15;;
14714;SDS011;7448;52.698;5.186;2022-11-20T07:07:21;33.70;;;13.45;;
14714;SDS011;7448;52.698;5.186;2022-11-20T07:09:48;31.80;;;11.48;;
14714;SDS011;7448;52.698;5.186;2022-11-20T07:12:14;26.13;;;11.05;;
14714;SDS011;7448;52.698;5.186;2022-11-20T07:14:40;26.20;;;11.07;;
14714;SDS011;7448;52.698;5.186;2022-11-20T07:17:07;25.70;;;10.88;;
14714;SDS011;7448;52.698;5.186;2022-11-20T07:19:33;24.98;;;10.88;;
14714;SDS011;7448;52.698;5.186;2022-11-20T07:22:00;22.30;;;9.93;;
14714;SDS011;7448;52.698;5.186;2022-11-20T07:24:26;24.67;;;10.65;;
14714;SDS011;7448;52.698;5.186;2022-11-20T07:26:53;21.58;;;9.82;;
14714;SDS011;7448;52.698;5.186;2022-11-20T07:29:19;23.45;;;11.13;;
14714;SDS011;7448;52.698;5.186;2022-11-20T07:31:45;22.25;;;10.52;;
14714;SDS011;7448;52.698;5.186;2022-11-20T07:34:12;26.40;;;11.88;;
14714;SDS011;7448;52.698;5.186;2022-11-20T07:36:39;30.27;;;11.63;;
14714;SDS011;7448;52.698;5.186;2022-11-20T07:39:05;26.45;;;11.35;;
14714;SDS011;7448;52.698;5.186;2022-11-20T07:41:31;25.50;;;11.25;;
14714;SDS011;7448;52.698;5.186;2022-11-20T07:43:58;23.42;;;9.93;;
14714;SDS011;7448;52.698;5.186;2022-11-20T07:46:24;21.83;;;10.10;;
14714;SDS011;7448;52.698;5.186;2022-11-20T07:48:51;24.45;;;10.45;;
14714;SDS011;7448;52.698;5.186;2022-11-20T07:51:17;22.67;;;9.75;;
14714;SDS011;7448;52.698;5.186;2022-11-20T07:53:44;24.90;;;10.90;;
14714;SDS011;7448;52.698;5.186;2022-11-20T07:56:10;25.33;;;11.05;;
14714;SDS011;7448;52.698;5.186;2022-11-20T07:58:37;27.75;;;11.07;;
14714;SDS011;7448;52.698;5.186;2022-11-20T08:01:04;24.70;;;11.05;;
14714;SDS011;7448;52.698;5.186;2022-11-20T08:03:31;27.45;;;11.50;;
14714;SDS011;7448;52.698;5.186;2022-11-20T08:06:00;24.33;;;11.85;;
14714;SDS011;7448;52.698;5.186;2022-11-20T08:08:27;29.02;;;11.73;;
14714;SDS011;7448;52.698;5.186;2022-11-20T08:10:56;24.17;;;10.88;;
14714;SDS011;7448;52.698;5.186;2022-11-20T08:13:42;27.65;;;12.15;;
14714;SDS011;7448;52.698;5.186;2022-11-20T08:16:28;30.02;;;13.00;;
14714;SDS011;7448;52.698;5.186;2022-11-20T08:18:54;27.85;;;12.25;;
14714;SDS011;7448;52.698;5.186;2022-11-20T08:21:21;24.45;;;12.18;;
14714;SDS011;7448;52.698;5.186;2022-11-20T08:23:48;30.05;;;12.63;;
14714;SDS011;7448;52.698;5.186;2022-11-20T08:26:14;29.70;;;12.88;;
14714;SDS011;7448;52.698;5.186;2022-11-20T08:28:41;29.23;;;12.75;;
14714;SDS011;7448;52.698;5.186;2022-11-20T08:31:27;29.77;;;14.55;;
14714;SDS011;7448;52.698;5.186;2022-11-20T08:33:54;28.50;;;12.85;;
14714;SDS011;7448;52.698;5.186;2022-11-20T08:36:21;31.85;;;13.05;;
14714;SDS011;7448;52.698;5.186;2022-11-20T08:38:52;28.48;;;13.70;;
14714;SDS011;7448;52.698;5.186;2022-11-20T08:41:19;25.63;;;12.43;;
14714;SDS011;7448;52.698;5.186;2022-11-20T08:43:49;29.02;;;13.10;;
14714;SDS011;7448;52.698;5.186;2022-11-20T08:46:16;30.13;;;13.93;;
14714;SDS011;7448;52.698;5.186;2022-11-20T08:48:43;29.98;;;12.68;;
14714;SDS011;7448;52.698;5.186;2022-11-20T08:51:10;25.83;;;11.98;;
14714;SDS011;7448;52.698;5.186;2022-11-20T08:53:37;27.60;;;12.10;;
14714;SDS011;7448;52.698;5.186;2022-11-20T08:56:03;25.85;;;13.30;;
14714;SDS011;7448;52.698;5.186;2022-11-20T08:58:30;29.33;;;13.32;;
14714;SDS011;7448;52.698;5.186;2022-11-20T09:00:56;27.00;;;13.27;;
14714;SDS011;7448;52.698;5.186;2022-11-20T09:03:23;27.00;;;13.13;;
14714;SDS011;7448;52.698;5.186;2022-11-20T09:05:59;27.05;;;12.95;;
14714;SDS011;7448;52.698;5.186;2022-11-20T09:08:25;24.08;;;12.10;;
14714;SDS011;7448;52.698;5.186;2022-11-20T09:10:53;24.13;;;12.00;;
14714;SDS011;7448;52.698;5.186;2022-11-20T09:13:20;28.02;;;12.70;;
14714;SDS011;7448;52.698;5.186;2022-11-20T09:15:47;25.58;;;12.70;;
14714;SDS011;7448;52.698;5.186;2022-11-20T09:18:13;26.88;;;12.40;;
14714;SDS011;7448;52.698;5.186;2022-11-20T09:20:39;27.08;;;12.63;;
14714;SDS011;7448;52.698;5.186;2022-11-20T09:23:06;26.52;;;13.40;;
14714;SDS011;7448;52.698;5.186;2022-11-20T09:25:32;32.33;;;13.57;;
14714;SDS011;7448;52.698;5.186;2022-11-20T09:27:59;25.58;;;11.57;;
14714;SDS011;7448;52.698;5.186;2022-11-20T09:30:26;27.00;;;12.27;;
14714;SDS011;7448;52.698;5.186;2022-11-20T09:32:53;23.98;;;11.50;;
14714;SDS011;7448;52.698;5.186;2022-11-20T09:35:19;24.33;;;10.98;;
14714;SDS011;7448;52.698;5.186;2022-11-20T09:37:46;22.67;;;10.50;;
14714;SDS011;7448;52.698;5.186;2022-11-20T09:40:22;18.27;;;9.75;;
14714;SDS011;7448;52.698;5.186;2022-11-20T09:45:23;22.15;;;10.75;;
14714;SDS011;7448;52.698;5.186;2022-11-20T09:50:50;22.48;;;9.95;;
14714;SDS011;7448;52.698;5.186;2022-11-20T09:55:46;22.02;;;10.13;;
14714;SDS011;7448;52.698;5.186;2022-11-20T09:58:24;20.17;;;10.23;;
14714;SDS011;7448;52.698;5.186;2022-11-20T10:00:52;19.15;;;10.15;;
14714;SDS011;7448;52.698;5.186;2022-11-20T10:04:22;16.55;;;9.20;;
14714;SDS011;7448;52.698;5.186;2022-11-20T10:06:18;18.45;;;8.88;;
14714;SDS011;7448;52.698;5.186;2022-11-20T10:08:51;15.20;;;8.65;;
14714;SDS011;7448;52.698;5.186;2022-11-20T10:24:44;18.60;;;9.90;;
14714;SDS011;7448;52.698;5.186;2022-11-20T10:30:06;19.83;;;8.90;;
14714;SDS011;7448;52.698;5.186;2022-11-20T10:32:39;17.33;;;8.80;;
14714;SDS011;7448;52.698;5.186;2022-11-20T10:35:18;21.85;;;9.55;;
14714;SDS011;7448;52.698;5.186;2022-11-20T10:37:48;17.42;;;9.65;;
14714;SDS011;7448;52.698;5.186;2022-11-20T10:40:18;20.05;;;9.90;;
14714;SDS011;7448;52.698;5.186;2022-11-20T10:42:46;21.45;;;10.50;;
14714;SDS011;7448;52.698;5.186;2022-11-20T10:45:40;17.67;;;9.73;;
14714;SDS011;7448;52.698;5.186;2022-11-20T10:50:36;20.27;;;10.32;;
14714;SDS011;7448;52.698;5.186;2022-11-20T10:53:08;20.00;;;9.93;;
14714;SDS011;7448;52.698;5.186;2022-11-20T10:55:46;20.08;;;10.38;;
14714;SDS011;7448;52.698;5.186;2022-11-20T11:01:04;22.00;;;11.05;;
14714;SDS011;7448;52.698;5.186;2022-11-20T11:03:31;19.55;;;10.35;;
14714;SDS011;7448;52.698;5.186;2022-11-20T11:06:02;22.00;;;10.13;;
14714;SDS011;7448;52.698;5.186;2022-11-20T11:08:32;23.38;;;11.60;;
14714;SDS011;7448;52.698;5.186;2022-11-20T11:11:02;21.98;;;11.52;;
14714;SDS011;7448;52.698;5.186;2022-11-20T11:13:30;25.45;;;11.55;;
14714;SDS011;7448;52.698;5.186;2022-11-20T11:15:57;18.77;;;10.65;;
14714;SDS011;7448;52.698;5.186;2022-11-20T11:20:53;19.25;;;10.35;;
14714;SDS011;7448;52.698;5.186;2022-11-20T11:25:56;21.98;;;11.43;;
14714;SDS011;7448;52.698;5.186;2022-11-20T11:28:24;21.63;;;11.23;;
14714;SDS011;7448;52.698;5.186;2022-11-20T11:30:53;21.50;;;12.13;;
14714;SDS011;7448;52.698;5.186;2022-11-20T11:33:21;23.33;;;12.13;;
14714;SDS011;7448;52.698;5.186;2022-11-20T11:35:52;25.08;;;11.43;;
14714;SDS011;7448;52.698;5.186;2022-11-20T11:38:21;24.50;;;12.23;;
14714;SDS011;7448;52.698;5.186;2022-11-20T11:40:48;23.38;;;11.73;;
14714;SDS011;7448;52.698;5.186;2022-11-20T11:43:17;34.38;;;12.00;;
14714;SDS011;7448;52.698;5.186;2022-11-20T11:46:49;25.42;;;13.13;;
14714;SDS011;7448;52.698;5.186;2022-11-20T11:49:15;24.30;;;12.80;;
14714;SDS011;7448;52.698;5.186;2022-11-20T11:52:00;26.85;;;13.05;;
14714;SDS011;7448;52.698;5.186;2022-11-20T11:54:39;24.98;;;12.15;;
14714;SDS011;7448;52.698;5.186;2022-11-20T11:57:10;32.13;;;14.23;;
14714;SDS011;7448;52.698;5.186;2022-11-20T12:02:20;26.10;;;14.10;;
14714;SDS011;7448;52.698;5.186;2022-11-20T12:04:52;28.98;;;14.73;;
14714;SDS011;7448;52.698;5.186;2022-11-20T12:09:58;25.88;;;13.98;;
14714;SDS011;7448;52.698;5.186;2022-11-20T12:12:34;27.48;;;14.30;;
14714;SDS011;7448;52.698;5.186;2022-11-20T12:15:03;24.17;;;12.32;;
14714;SDS011;7448;52.698;5.186;2022-11-20T12:17:30;28.85;;;14.82;;
14714;SDS011;7448;52.698;5.186;2022-11-20T12:19:56;26.25;;;14.30;;
14714;SDS011;7448;52.698;5.186;2022-11-20T12:22:27;28.33;;;14.27;;
14714;SDS011;7448;52.698;5.186;2022-11-20T12:27:43;26.50;;;14.52;;
14714;SDS011;7448;52.698;5.186;2022-11-20T12:32:56;30.73;;;15.70;;
14714;SDS011;7448;52.698;5.186;2022-11-20T12:35:36;33.15;;;15.32;;
14714;SDS011;7448;52.698;5.186;2022-11-20T12:43:20;35.97;;;17.30;;
14714;SDS011;7448;52.698;5.186;2022-11-20T12:46:22;40.15;;;18.20;;
14714;SDS011;7448;52.698;5.186;2022-11-20T12:51:26;40.88;;;19.70;;
14714;SDS011;7448;52.698;5.186;2022-11-20T12:53:59;45.80;;;19.48;;
14714;SDS011;7448;52.698;5.186;2022-11-20T13:07:03;47.40;;;19.80;;
14714;SDS011;7448;52.698;5.186;2022-11-20T13:09:32;46.53;;;20.65;;
14714;SDS011;7448;52.698;5.186;2022-11-20T13:12:05;47.28;;;20.35;;
14714;SDS011;7448;52.698;5.186;2022-11-20T13:17:31;42.97;;;20.33;;
14714;SDS011;7448;52.698;5.186;2022-11-20T13:19:59;41.00;;;17.98;;
14714;SDS011;7448;52.698;5.186;2022-11-20T13:22:26;44.95;;;20.17;;
14714;SDS011;7448;52.698;5.186;2022-11-20T13:24:53;46.25;;;20.73;;
14714;SDS011;7448;52.698;5.186;2022-11-20T13:27:23;46.60;;;21.13;;
14714;SDS011;7448;52.698;5.186;2022-11-20T13:30:00;46.50;;;20.85;;
14714;SDS011;7448;52.698;5.186;2022-11-20T13:32:27;53.88;;;21.10;;
14714;SDS011;7448;52.698;5.186;2022-11-20T13:37:37;52.58;;;21.20;;
14714;SDS011;7448;52.698;5.186;2022-11-20T13:40:19;48.75;;;20.58;;
14714;SDS011;7448;52.698;5.186;2022-11-20T13:42:51;52.58;;;21.75;;
14714;SDS011;7448;52.698;5.186;2022-11-20T13:45:25;50.42;;;22.23;;
14714;SDS011;7448;52.698;5.186;2022-11-20T13:47:52;50.08;;;21.67;;
14714;SDS011;7448;52.698;5.186;2022-11-20T13:50:19;44.83;;;20.23;;
14714;SDS011;7448;52.698;5.186;2022-11-20T13:53:04;47.88;;;20.13;;
14714;SDS011;7448;52.698;5.186;2022-11-20T13:55:38;43.53;;;19.38;;
14714;SDS011;7448;52.698;5.186;2022-11-20T14:00:57;41.40;;;17.45;;
14714;SDS011;7448;52.698;5.186;2022-11-20T14:03:24;48.38;;;19.08;;
14714;SDS011;7448;52.698;5.186;2022-11-20T14:05:59;38.67;;;16.65;;
14714;SDS011;7448;52.698;5.186;2022-11-20T14:08:42;41.92;;;18.05;;
14714;SDS011;7448;52.698;5.186;2022-11-20T14:11:19;38.55;;;17.23;;
14714;SDS011;7448;52.698;5.186;2022-11-20T14:13:57;41.83;;;18.88;;
14714;SDS011;7448;52.698;5.186;2022-11-20T14:16:24;41.67;;;17.88;;
14714;SDS011;7448;52.698;5.186;2022-11-20T14:18:51;39.70;;;17.77;;
14714;SDS011;7448;52.698;5.186;2022-11-20T14:21:24;37.15;;;15.65;;
14714;SDS011;7448;52.698;5.186;2022-11-20T14:24:02;37.63;;;15.05;;
14714;SDS011;7448;52.698;5.186;2022-11-20T14:26:29;33.67;;;15.65;;
14714;SDS011;7448;52.698;5.186;2022-11-20T14:28:56;34.85;;;15.80;;
14714;SDS011;7448;52.698;5.186;2022-11-20T14:31:24;33.22;;;15.05;;
14714;SDS011;7448;52.698;5.186;2022-11-20T14:33:52;30.85;;;13.90;;
14714;SDS011;7448;52.698;5.186;2022-11-20T14:36:19;33.05;;;14.52;;
14714;SDS011;7448;52.698;5.186;2022-11-20T14:38:46;34.08;;;15.57;;
14714;SDS011;7448;52.698;5.186;2022-11-20T14:41:20;30.85;;;14.60;;
14714;SDS011;7448;52.698;5.186;2022-11-20T14:43:51;31.83;;;15.60;;
14714;SDS011;7448;52.698;5.186;2022-11-20T14:46:20;30.50;;;14.02;;
14714;SDS011;7448;52.698;5.186;2022-11-20T14:48:47;34.45;;;14.48;;
14714;SDS011;7448;52.698;5.186;2022-11-20T14:53:54;31.15;;;14.65;;
14714;SDS011;7448;52.698;5.186;2022-11-20T14:56:21;36.03;;;15.32;;
14714;SDS011;7448;52.698;5.186;2022-11-20T14:58:55;29.55;;;13.63;;
14714;SDS011;7448;52.698;5.186;2022-11-20T15:01:25;33.10;;;14.82;;
14714;SDS011;7448;52.698;5.186;2022-11-20T15:04:05;32.25;;;14.95;;
14714;SDS011;7448;52.698;5.186;2022-11-20T15:06:33;34.08;;;15.73;;
14714;SDS011;7448;52.698;5.186;2022-11-20T15:08:59;39.83;;;15.70;;
14714;SDS011;7448;52.698;5.186;2022-11-20T15:11:29;35.95;;;14.90;;
14714;SDS011;7448;52.698;5.186;2022-11-20T15:13:57;35.08;;;15.27;;
14714;SDS011;7448;52.698;5.186;2022-11-20T15:16:23;37.53;;;16.27;;
14714;SDS011;7448;52.698;5.186;2022-11-20T15:18:53;39.25;;;16.52;;
14714;SDS011;7448;52.698;5.186;2022-11-20T15:21:20;39.38;;;15.93;;
14714;SDS011;7448;52.698;5.186;2022-11-20T15:23:46;37.38;;;16.42;;
14714;SDS011;7448;52.698;5.186;2022-11-20T15:26:14;39.58;;;16.38;;
14714;SDS011;7448;52.698;5.186;2022-11-20T15:28:41;38.67;;;16.58;;
14714;SDS011;7448;52.698;5.186;2022-11-20T15:31:10;35.13;;;16.30;;
14714;SDS011;7448;52.698;5.186;2022-11-20T15:33:37;42.80;;;17.55;;
14714;SDS011;7448;52.698;5.186;2022-11-20T15:36:04;44.00;;;17.15;;
14714;SDS011;7448;52.698;5.186;2022-11-20T15:38:30;43.50;;;18.08;;
14714;SDS011;7448;52.698;5.186;2022-11-20T15:40:57;41.35;;;18.55;;
14714;SDS011;7448;52.698;5.186;2022-11-20T15:43:23;51.40;;;19.63;;
14714;SDS011;7448;52.698;5.186;2022-11-20T15:48:20;44.03;;;18.67;;
14714;SDS011;7448;52.698;5.186;2022-11-20T15:50:49;49.83;;;19.75;;
14714;SDS011;7448;52.698;5.186;2022-11-20T15:53:17;43.25;;;18.52;;
14714;SDS011;7448;52.698;5.186;2022-11-20T15:55:43;50.55;;;19.67;;
14714;SDS011;7448;52.698;5.186;2022-11-20T15:58:10;48.20;;;20.35;;
14714;SDS011;7448;52.698;5.186;2022-11-20T16:00:36;50.92;;;20.55;;
14714;SDS011;7448;52.698;5.186;2022-11-20T16:03:03;48.67;;;18.98;;
14714;SDS011;7448;52.698;5.186;2022-11-20T16:05:29;44.80;;;19.20;;
14714;SDS011;7448;52.698;5.186;2022-11-20T16:07:56;42.85;;;18.80;;
14714;SDS011;7448;52.698;5.186;2022-11-20T16:10:23;44.35;;;19.15;;
14714;SDS011;7448;52.698;5.186;2022-11-20T16:12:49;44.83;;;20.20;;
14714;SDS011;7448;52.698;5.186;2022-11-20T16:15:34;46.78;;;19.98;;